Time;durP1;ratioP1;P1;durP2;ratioP2;P2;SDS_P1;SDS_P2;PMS_P1;PMS_P2;Temp;Humidity;BMP_temperature;BMP_pressure;BME280_temperature;BME280_humidity;BME280_pressure;Samples;Min_cycle;Max_cycle;Signal;HPM_P1;HPM_P2
2022/04/01 00:02:45;;;;;;;38.58;22.30;;;;;;;3.06;100.00;98986.50;8413140;28;20035;-61
2022/04/01 00:06:45;;;;;;;37.50;21.98;;;;;;;2.99;100.00;98991.50;8418678;28;20070;-61
2022/04/01 00:10:46;;;;;;;37.65;22.83;;;;;;;3.11;100.00;98987.78;8423377;28;20036;-61
2022/04/01 00:14:46;;;;;;;39.72;24.13;;;;;;;3.18;100.00;98988.09;8425979;28;20032;-60
2022/04/01 00:18:47;;;;;;;39.83;22.60;;;;;;;3.26;100.00;98985.63;8424934;28;20035;-61
2022/04/01 00:22:48;;;;;;;37.78;23.45;;;;;;;3.13;100.00;98993.84;8403748;28;20040;-61
2022/04/01 00:26:49;;;;;;;38.88;23.77;;;;;;;3.26;100.00;98991.81;8401282;28;20032;-61
2022/04/01 00:30:49;;;;;;;38.65;24.67;;;;;;;3.23;100.00;99002.75;8389993;28;20636;-61
2022/04/01 00:34:49;;;;;;;37.40;22.73;;;;;;;3.26;100.00;99002.47;8401781;28;20123;-61
2022/04/01 00:38:50;;;;;;;38.90;23.60;;;;;;;3.17;100.00;99008.59;8406611;28;20121;-61
2022/04/01 00:42:50;;;;;;;38.75;23.60;;;;;;;3.25;100.00;99003.47;8394707;28;20067;-60
2022/04/01 00:46:58;;;;;;;38.97;23.55;;;;;;;3.23;100.00;99002.75;8399978;28;20048;-63
2022/04/01 00:50:58;;;;;;;39.25;23.45;;;;;;;3.25;100.00;99005.28;8392598;28;20079;-63
2022/04/01 00:55:00;;;;;;;39.15;23.60;;;;;;;3.35;100.00;99007.03;8405258;28;20086;-63
2022/04/01 00:59:02;;;;;;;38.65;23.65;;;;;;;3.25;100.00;98998.13;8405653;28;20037;-63
2022/04/01 01:03:04;;;;;;;47.92;24.83;;;;;;;3.19;100.00;99006.66;8388297;28;20399;-63
2022/04/01 01:07:05;;;;;;;43.63;23.90;;;;;;;3.14;100.00;98998.19;8423942;28;20481;-64
2022/04/01 01:11:06;;;;;;;39.55;22.60;;;;;;;3.09;100.00;99000.44;8406797;28;20036;-64
2022/04/01 01:15:10;;;;;;;38.70;22.63;;;;;;;3.14;100.00;99011.53;8407875;28;20515;-63
2022/04/01 01:19:15;;;;;;;43.67;24.35;;;;;;;3.16;100.00;99006.94;8395954;28;20036;-63
2022/04/01 01:23:16;;;;;;;44.97;25.40;;;;;;;3.29;100.00;99007.56;8393016;28;20523;-63
2022/04/01 01:27:16;;;;;;;46.50;26.33;;;;;;;3.45;100.00;99007.91;8418587;28;20382;-63
2022/04/01 01:31:16;;;;;;;44.92;26.58;;;;;;;3.53;100.00;99018.78;8422970;28;20040;-63
2022/04/01 01:35:17;;;;;;;47.55;25.70;;;;;;;3.54;100.00;99011.63;8422247;28;20347;-63
2022/04/01 01:39:19;;;;;;;47.15;27.35;;;;;;;3.47;100.00;99011.31;8399256;28;20476;-64
2022/04/01 01:43:20;;;;;;;49.67;27.15;;;;;;;3.52;100.00;99008.25;8404153;28;20044;-64
2022/04/01 01:47:20;;;;;;;50.42;27.48;;;;;;;3.64;100.00;99012.53;8422498;28;20028;-64
2022/04/01 01:55:41;;;;;;;52.20;29.33;;;;;;;3.72;100.00;99016.19;8423222;28;20032;-64
2022/04/01 01:59:43;;;;;;;48.00;27.92;;;;;;;3.76;100.00;99012.28;8426387;28;20039;-64
2022/04/01 02:03:43;;;;;;;55.08;27.95;;;;;;;3.64;100.00;99013.38;8429110;28;20433;-64
2022/04/01 02:07:47;;;;;;;48.97;27.23;;;;;;;3.66;100.00;99016.75;8429349;28;20408;-64
2022/04/01 02:11:47;;;;;;;48.25;27.13;;;;;;;3.65;100.00;99008.84;8399007;28;20451;-64
2022/04/01 02:15:47;;;;;;;41.63;25.77;;;;;;;3.70;100.00;99018.19;8411150;28;20112;-64
2022/04/01 02:19:49;;;;;;;40.13;24.30;;;;;;;3.76;100.00;99017.63;8410914;28;20585;-64
2022/04/01 02:23:51;;;;;;;32.20;21.45;;;;;;;3.76;100.00;99017.63;8421991;28;20584;-64
2022/04/01 02:27:51;;;;;;;38.47;22.92;;;;;;;3.74;100.00;99018.75;8427061;28;20039;-64
2022/04/01 02:31:53;;;;;;;32.20;21.45;;;;;;;3.74;100.00;99024.09;8419820;28;20036;-64
2022/04/01 02:35:57;;;;;;;29.02;19.38;;;;;;;3.67;100.00;99015.78;8411722;28;20036;-64
2022/04/01 02:39:58;;;;;;;;;;;;;;;3.62;100.00;99026.00;8390948;28;20039;-64
2022/04/01 02:44:14;;;;;;;26.42;18.38;;;;;;;3.58;100.00;99027.28;8403223;28;19916;-64
2022/04/01 02:48:16;;;;;;;25.73;18.20;;;;;;;3.59;100.00;99036.97;8399020;28;20516;-64
2022/04/01 02:52:16;;;;;;;24.17;18.02;;;;;;;3.54;100.00;99047.19;8414900;28;20039;-64
2022/04/01 02:56:17;;;;;;;25.08;17.45;;;;;;;3.54;100.00;99055.22;8423664;28;20031;-64
2022/04/01 03:00:21;;;;;;;26.40;17.88;;;;;;;3.50;100.00;99052.94;8418396;28;20028;-64
2022/04/01 03:04:22;;;;;;;;;;;;;;;3.48;100.00;99047.72;8424033;28;20086;-64
2022/04/01 03:08:23;;;;;;;26.73;17.77;;;;;;;3.47;100.00;99054.06;8423228;28;20299;-64
2022/04/01 03:12:23;;;;;;;28.85;19.02;;;;;;;3.48;100.00;99049.56;8390158;28;20037;-64
2022/04/01 03:16:24;;;;;;;26.13;17.55;;;;;;;3.45;100.00;99066.69;8419455;28;20515;-64
2022/04/01 03:20:29;;;;;;;23.92;16.63;;;;;;;3.42;100.00;99056.25;8422871;28;20024;-64
2022/04/01 03:24:29;;;;;;;24.73;17.30;;;;;;;3.43;100.00;99068.66;8423257;28;20032;-64
2022/04/01 03:28:30;;;;;;;25.73;16.98;;;;;;;3.40;100.00;99073.41;8423021;28;20040;-64
2022/04/01 03:32:30;;;;;;;24.95;15.77;;;;;;;3.38;100.00;99080.69;8404971;28;20047;-64
2022/04/01 03:36:32;;;;;;;26.17;15.82;;;;;;;3.37;100.00;99082.53;8422790;28;20063;-64
2022/04/01 03:40:35;;;;;;;32.47;16.05;;;;;;;3.38;100.00;99091.38;8408433;28;20056;-64
2022/04/01 03:44:39;;;;;;;24.35;16.15;;;;;;;3.32;100.00;99098.09;8411390;28;20039;-64
2022/04/01 03:48:45;;;;;;;22.80;15.60;;;;;;;3.31;100.00;99092.88;8390149;28;20044;-64
2022/04/01 03:52:47;;;;;;;20.35;14.90;;;;;;;3.28;100.00;99096.66;8403350;28;20032;-64
2022/04/01 03:56:56;;;;;;;22.30;15.05;;;;;;;3.28;100.00;99102.00;8389775;28;20567;-64
2022/04/01 04:01:00;;;;;;;21.73;14.80;;;;;;;3.21;100.00;99106.19;8388950;28;20075;-64
2022/04/01 04:05:02;;;;;;;20.67;14.50;;;;;;;3.23;100.00;99114.88;8421650;28;20035;-64
2022/04/01 04:09:03;;;;;;;19.02;14.15;;;;;;;3.19;100.00;99113.47;8421926;28;20040;-64
2022/04/01 04:13:06;;;;;;;18.33;13.57;;;;;;;3.15;100.00;99117.38;8420427;28;20044;-64
2022/04/01 04:17:13;;;;;;;18.77;14.65;;;;;;;3.13;100.00;99124.66;8420866;28;20588;-64
2022/04/01 04:21:27;;;;;;;18.10;13.82;;;;;;;3.11;100.00;99121.25;8399277;28;20085;-64
2022/04/01 04:25:35;;;;;;;19.33;13.40;;;;;;;3.05;100.00;99124.44;8403561;28;20082;-64
2022/04/01 04:29:42;;;;;;;17.50;13.27;;;;;;;3.05;100.00;99137.78;8394470;28;20093;-64
2022/04/01 04:33:46;;;;;;;17.70;12.55;;;;;;;3.04;100.00;99137.91;8387167;28;20470;-64
2022/04/01 04:37:47;;;;;;;19.57;12.40;;;;;;;3.01;100.00;99141.69;8399397;28;20504;-64
2022/04/01 04:41:49;;;;;;;20.58;12.00;;;;;;;3.01;100.00;99147.03;8396216;28;20298;-64
2022/04/01 04:45:52;;;;;;;17.60;11.48;;;;;;;3.01;100.00;99151.50;8400372;28;20039;-64
2022/04/01 04:49:54;;;;;;;22.35;11.13;;;;;;;3.00;100.00;99163.16;8415747;28;20047;-64
2022/04/01 04:53:59;;;;;;;15.90;11.50;;;;;;;3.00;100.00;99172.03;8403013;28;20041;-64
2022/04/01 04:58:01;;;;;;;17.45;12.02;;;;;;;2.94;100.00;99167.19;8395703;28;20127;-64
2022/04/01 05:02:06;;;;;;;18.60;12.02;;;;;;;2.88;100.00;99175.69;8399610;28;20107;-64
2022/04/01 05:06:10;;;;;;;13.38;10.35;;;;;;;2.89;100.00;99185.38;8418364;28;20039;-64
2022/04/01 05:10:20;;;;;;;15.27;11.60;;;;;;;2.92;100.00;99198.47;8402953;28;20044;-64
2022/04/01 05:14:50;;;;;;;13.93;10.90;;;;;;;2.92;100.00;99201.16;8395563;28;20071;-64
2022/04/01 05:19:01;;;;;;;13.82;10.32;;;;;;;2.88;100.00;99205.06;8406377;28;20031;-64
2022/04/01 05:23:41;;;;;;;13.80;10.38;;;;;;;2.89;100.00;99216.56;8400173;28;20041;-64
2022/04/01 05:27:48;;;;;;;16.20;10.65;;;;;;;2.86;100.00;99217.66;8388178;28;20116;-64
2022/04/01 05:36:09;;;;;;;14.10;10.18;;;;;;;2.87;100.00;99240.69;8396023;27;20399;-64
2022/04/01 05:40:11;;;;;;;15.63;10.60;;;;;;;2.87;100.00;99247.88;8377853;28;20089;-65
2022/04/01 05:44:12;;;;;;;14.95;9.55;;;;;;;2.86;100.00;99249.69;8376647;28;20041;-64
2022/04/01 05:48:14;;;;;;;14.23;9.63;;;;;;;2.85;100.00;99263.16;8379951;28;20044;-65
2022/04/01 05:52:15;;;;;;;11.85;9.40;;;;;;;2.82;100.00;99269.59;8379497;28;20412;-65
2022/04/01 05:56:15;;;;;;;13.30;9.82;;;;;;;2.83;100.00;99268.59;8373499;28;20041;-65
2022/04/01 06:00:16;;;;;;;11.52;9.48;;;;;;;2.81;100.00;99278.53;8367464;28;20090;-65
2022/04/01 06:04:56;;;;;;;12.40;8.93;;;;;;;2.80;100.00;99286.72;8373570;28;20029;-65
2022/04/01 06:09:06;;;;;;;9.80;8.38;;;;;;;2.78;100.00;99284.16;8374287;28;20055;-65
2022/04/01 06:13:25;;;;;;;12.57;8.52;;;;;;;2.80;100.00;99287.53;8376073;28;20043;-65
2022/04/01 06:18:05;;;;;;;11.32;8.57;;;;;;;2.78;100.00;99297.50;8375673;28;20556;-65
2022/04/01 06:22:12;;;;;;;15.45;8.70;;;;;;;2.82;100.00;99312.28;8403927;28;20049;-65
2022/04/01 06:26:13;;;;;;;10.05;8.13;;;;;;;2.80;100.00;99308.88;8376783;28;20635;-65
2022/04/01 06:30:17;;;;;;;11.57;8.10;;;;;;;2.82;100.00;99322.97;8374020;28;20048;-65
2022/04/01 06:34:23;;;;;;;11.65;8.57;;;;;;;2.79;100.00;99322.34;8371925;28;20083;-65
2022/04/01 06:38:35;;;;;;;11.02;8.45;;;;;;;2.79;100.00;99336.53;8373406;28;20032;-65
2022/04/01 06:42:38;;;;;;;9.60;7.35;;;;;;;2.77;100.00;99343.81;8373868;28;20069;-65
2022/04/01 06:46:38;;;;;;;12.77;8.80;;;;;;;2.74;100.00;99356.56;8354143;28;20056;-65
2022/04/01 06:50:39;;;;;;;10.63;8.85;;;;;;;2.76;100.00;99357.28;8351143;28;20041;-65
2022/04/01 06:54:39;;;;;;;10.90;8.45;;;;;;;2.76;100.00;99360.78;8352253;28;20037;-65
2022/04/01 06:58:40;;;;;;;13.10;8.45;;;;;;;2.75;100.00;99364.44;8379416;28;20051;-65
2022/04/01 07:02:41;;;;;;;9.65;7.55;;;;;;;2.77;100.00;99372.34;8352109;28;20041;-65
2022/04/01 07:06:41;;;;;;;11.52;8.85;;;;;;;2.77;100.00;99372.34;8349908;28;20549;-65
2022/04/01 07:10:42;;;;;;;10.35;8.07;;;;;;;2.76;100.00;99376.81;8353778;28;20651;-64
2022/04/01 07:14:43;;;;;;;10.88;8.43;;;;;;;2.72;100.00;99383.34;8351274;28;20051;-64
2022/04/01 07:18:43;;;;;;;13.30;7.90;;;;;;;2.70;100.00;99385.28;8349929;28;20071;-65
2022/04/01 07:22:44;;;;;;;11.10;7.90;;;;;;;2.69;100.00;99386.25;8344256;28;20033;-65
2022/04/01 07:26:44;;;;;;;10.00;8.00;;;;;;;2.70;100.00;99393.28;8348738;28;20391;-64
2022/04/01 07:30:45;;;;;;;9.80;7.85;;;;;;;2.72;100.00;99394.03;8349613;28;20040;-64
2022/04/01 07:34:45;;;;;;;9.63;7.07;;;;;;;2.74;100.00;99410.75;8378885;28;20051;-64
2022/04/01 07:38:46;;;;;;;7.63;6.82;;;;;;;2.73;100.00;99418.88;8351146;28;20033;-64
2022/04/01 07:42:48;;;;;;;8.13;6.82;;;;;;;2.73;100.00;99419.72;8382764;28;20060;-64
2022/04/01 07:46:50;;;;;;;8.18;7.15;;;;;;;2.75;99.13;99432.97;8348658;28;20041;-64
2022/04/01 07:50:50;;;;;;;8.18;6.55;;;;;;;2.73;99.88;99430.41;8352246;28;20497;-64
2022/04/01 07:54:51;;;;;;;8.27;6.88;;;;;;;2.72;100.00;99444.72;8351873;28;20334;-64
2022/04/01 07:58:51;;;;;;;8.20;6.32;;;;;;;2.73;100.00;99435.75;8352109;28;20033;-64
2022/04/01 08:02:54;;;;;;;13.50;7.95;;;;;;;2.75;100.00;99439.16;8363767;28;20119;-64
2022/04/01 08:06:55;;;;;;;7.95;6.75;;;;;;;2.82;99.93;99450.19;8352337;28;20067;-64
2022/04/01 08:10:56;;;;;;;10.25;8.07;;;;;;;2.80;100.00;99458.31;8352758;28;20424;-64
2022/04/01 08:14:56;;;;;;;9.15;7.55;;;;;;;2.79;99.25;99461.94;8349744;28;20148;-64
2022/04/01 08:18:56;;;;;;;12.45;7.85;;;;;;;2.82;99.70;99472.38;8352025;28;20028;-64
2022/04/01 08:22:57;;;;;;;7.80;6.97;;;;;;;2.88;98.26;99465.72;8350816;28;21078;-64
2022/04/01 08:27:00;;;;;;;7.80;6.82;;;;;;;2.84;97.63;99470.44;8376520;28;20098;-64
2022/04/01 08:31:01;;;;;;;9.32;7.32;;;;;;;2.90;96.83;99491.31;8363273;28;20040;-64
2022/04/01 08:35:02;;;;;;;8.18;6.40;;;;;;;2.92;96.12;99497.41;8348267;28;20061;-64
2022/04/01 08:39:04;;;;;;;7.95;6.60;;;;;;;3.01;96.27;99499.34;8380773;28;20041;-64
2022/04/01 08:43:04;;;;;;;7.50;6.72;;;;;;;3.03;96.21;99513.44;8352560;28;20448;-64
2022/04/01 08:47:05;;;;;;;8.50;6.80;;;;;;;3.07;95.72;99509.56;8352771;28;20067;-64
2022/04/01 08:51:05;;;;;;;8.32;6.00;;;;;;;3.11;94.08;99511.03;8348741;28;20053;-64
2022/04/01 08:55:10;;;;;;;6.50;5.63;;;;;;;3.08;94.32;99521.09;8352666;28;20044;-64
2022/04/01 08:59:11;;;;;;;9.32;6.15;;;;;;;3.00;96.61;99521.69;8353334;28;20040;-64
2022/04/01 09:03:14;;;;;;;7.32;6.47;;;;;;;2.96;97.23;99533.56;8350716;28;20044;-64
2022/04/01 09:07:16;;;;;;;9.55;6.85;;;;;;;2.96;97.28;99532.72;8348907;28;20036;-64
2022/04/01 09:11:18;;;;;;;10.63;6.72;;;;;;;2.89;97.08;99548.34;8336664;28;20267;-64
2022/04/01 09:15:19;;;;;;;8.43;7.35;;;;;;;2.88;98.12;99551.97;8337455;28;20528;-64
2022/04/01 09:19:29;;;;;;;9.18;7.93;;;;;;;2.87;97.78;99552.09;8344487;28;20033;-64
2022/04/01 09:23:30;;;;;;;9.98;7.75;;;;;;;2.82;97.98;99557.78;8339624;28;20052;-64
2022/04/01 09:27:50;;;;;;;9.15;7.38;;;;;;;2.84;97.86;99553.16;8343534;28;20037;-64
2022/04/01 09:31:53;;;;;;;12.18;8.52;;;;;;;2.82;97.92;99568.47;8344305;28;20037;-64
2022/04/01 09:35:53;;;;;;;11.77;7.93;;;;;;;2.82;96.99;99557.78;8341816;28;20086;-64
2022/04/01 09:39:54;;;;;;;13.65;8.65;;;;;;;2.81;96.41;99561.41;8346607;28;20094;-64
2022/04/01 09:44:06;;;;;;;12.05;7.82;;;;;;;2.82;96.63;99567.59;8340697;28;20033;-63
2022/04/01 09:48:09;;;;;;;10.18;7.50;;;;;;;2.77;95.05;99573.28;8327300;28;20086;-62
2022/04/01 09:52:12;;;;;;;15.30;8.30;;;;;;;2.79;94.61;99590.03;8342912;28;20049;-62
2022/04/01 09:56:13;;;;;;;10.68;7.32;;;;;;;2.80;94.85;99590.91;8365838;28;20367;-62
2022/04/01 10:00:14;;;;;;;11.25;7.20;;;;;;;2.79;94.50;99595.38;8339948;28;20040;-62
2022/04/01 10:04:14;;;;;;;11.35;7.70;;;;;;;2.79;93.89;99594.50;8337531;28;20480;-63
2022/04/01 10:08:15;;;;;;;7.93;6.57;;;;;;;2.75;93.18;99609.06;8336371;28;20048;-63
2022/04/01 10:12:19;;;;;;;7.47;6.60;;;;;;;2.78;93.68;99601.69;8337630;28;20041;-62
2022/04/01 10:16:21;;;;;;;9.23;6.35;;;;;;;2.77;92.61;99612.47;8343012;28;20044;-62
2022/04/01 10:20:22;;;;;;;7.97;6.07;;;;;;;2.73;91.76;99606.50;8343722;28;20580;-62
2022/04/01 10:24:48;;;;;;;7.93;6.10;;;;;;;2.80;92.26;99607.75;8360685;28;20052;-62
2022/04/01 10:28:51;;;;;;;7.72;6.15;;;;;;;2.79;90.76;99610.53;8345194;28;20037;-63
2022/04/01 10:32:52;;;;;;;7.15;6.05;;;;;;;2.85;90.92;99616.25;8344751;28;20036;-62
2022/04/01 10:36:55;;;;;;;8.00;6.18;;;;;;;2.86;90.71;99622.44;8347149;28;20413;-62
2022/04/01 10:41:07;;;;;;;12.93;6.35;;;;;;;2.84;90.47;99622.53;8346956;28;20049;-62
2022/04/01 10:45:24;;;;;;;6.45;5.75;;;;;;;2.87;89.75;99627.66;8344549;28;20041;-62
2022/04/01 10:53:54;;;;;;;8.00;6.25;;;;;;;2.91;89.01;99634.50;8347780;28;20052;-62
2022/04/01 10:58:07;;;;;;;7.93;6.68;;;;;;;2.95;88.74;99635.97;8343610;28;20049;-62
2022/04/01 11:02:13;;;;;;;7.10;5.60;;;;;;;2.99;87.33;99629.41;8345917;28;20160;-62
2022/04/01 11:06:28;;;;;;;9.38;6.22;;;;;;;3.05;87.87;99636.97;8362180;28;20045;-62
2022/04/01 11:10:32;;;;;;;10.18;6.60;;;;;;;3.22;88.59;99636.56;8346613;28;20041;-63
2022/04/01 11:19:18;;;;;;;7.95;6.63;;;;;;;3.22;86.36;99651.72;8283835;27;20404;-64
2022/04/01 11:23:19;;;;;;;7.75;6.00;;;;;;;3.39;86.59;99635.28;8264041;28;20143;-64
2022/04/01 11:27:24;;;;;;;6.22;5.28;;;;;;;3.34;84.86;99634.75;8256127;28;20058;-64
2022/04/01 11:31:25;;;;;;;7.07;5.32;;;;;;;3.42;84.08;99643.88;8251594;28;20045;-64
2022/04/01 11:35:29;;;;;;;7.20;5.68;;;;;;;3.40;84.02;99658.34;8264932;28;20043;-64
2022/04/01 11:39:30;;;;;;;;;;;;;;;3.46;84.48;99653.38;8259801;28;20047;-64
2022/04/01 11:43:33;;;;;;;7.47;5.70;;;;;;;3.42;83.11;99641.22;8246501;28;19968;-64
2022/04/01 11:47:37;;;;;;;8.48;5.63;;;;;;;3.41;84.39;99652.88;8256232;28;20104;-64
2022/04/01 11:51:38;;;;;;;6.75;5.13;;;;;;;3.38;83.03;99662.94;8264312;28;20494;-64
2022/04/01 11:55:42;;;;;;;7.68;5.43;;;;;;;3.28;83.36;99657.47;8261604;28;20064;-64
2022/04/01 11:59:42;;;;;;;6.85;5.47;;;;;;;3.35;83.33;99674.72;8266855;28;20447;-64
2022/04/01 12:03:43;;;;;;;6.30;5.68;;;;;;;3.30;83.22;99682.22;8271363;28;20035;-64
2022/04/01 12:09:01;;;;;;;6.70;5.45;;;;;;;3.29;83.94;99675.19;8253396;28;20049;-64
2022/04/01 12:12:23;;;;;;;7.50;5.50;;;;;;;3.26;84.17;99675.41;8264789;28;20053;-64
2022/04/01 12:16:25;;;;;;;7.00;4.97;;;;;;;3.25;83.76;99676.38;8257318;28;20306;-64
2022/04/01 12:20:28;;;;;;;8.52;5.10;;;;;;;3.27;83.25;99686.94;8256911;28;20188;-64
2022/04/01 12:24:30;;;;;;;9.73;5.55;;;;;;;3.32;83.63;99685.63;8250270;28;20076;-64
2022/04/01 12:28:41;;;;;;;6.63;4.82;;;;;;;3.25;83.78;99686.19;8246661;28;20110;-64
2022/04/01 12:32:53;;;;;;;6.03;4.90;;;;;;;3.22;84.28;99679.28;8238697;28;20038;-64
2022/04/01 12:37:00;;;;;;;6.85;5.47;;;;;;;3.31;84.88;99693.75;8232903;28;20041;-64
2022/04/01 12:41:03;;;;;;;6.63;5.40;;;;;;;3.30;84.75;99700.91;8235457;28;20118;-64
2022/04/01 12:45:06;;;;;;;5.10;4.35;;;;;;;3.26;84.91;99696.78;8237322;28;20568;-64
2022/04/01 12:49:17;;;;;;;7.53;5.30;;;;;;;3.27;84.56;99700.31;8238238;28;20080;-64
2022/04/01 12:53:17;;;;;;;7.15;5.18;;;;;;;3.19;84.78;99694.66;8210717;28;20047;-64
2022/04/01 12:57:19;;;;;;;8.10;5.38;;;;;;;3.21;85.05;99708.78;8231670;28;20125;-64
2022/04/01 13:01:25;;;;;;;6.75;5.28;;;;;;;3.25;83.70;99699.56;8232963;28;20081;-64
2022/04/01 13:05:25;;;;;;;6.68;5.63;;;;;;;3.26;83.91;99717.31;8227286;28;20498;-64
2022/04/01 13:09:25;;;;;;;6.15;5.10;;;;;;;3.27;83.55;99700.31;8236750;28;20406;-64
2022/04/01 13:13:32;;;;;;;9.55;4.82;;;;;;;3.30;82.67;99708.91;8229972;28;20038;-64
2022/04/01 13:17:50;;;;;;;5.80;5.03;;;;;;;3.33;82.69;99706.00;8234997;28;20056;-64
2022/04/01 13:21:51;;;;;;;6.75;5.10;;;;;;;3.40;83.81;99709.94;8223109;28;20038;-64
2022/04/01 13:25:52;;;;;;;5.72;4.80;;;;;;;3.39;83.28;99708.22;8219843;28;20045;-64
2022/04/01 13:29:54;;;;;;;6.88;4.38;;;;;;;3.43;82.30;99720.41;8225689;28;20045;-64
2022/04/01 13:33:56;;;;;;;5.47;4.55;;;;;;;3.56;82.72;99714.97;8224416;28;20042;-64
2022/04/01 13:37:56;;;;;;;7.63;4.65;;;;;;;3.68;81.71;99719.38;8236615;28;20042;-64
2022/04/01 13:41:58;;;;;;;5.47;3.97;;;;;;;3.76;79.57;99717.81;8227089;28;20122;-64
2022/04/01 13:45:58;;;;;;;4.45;3.85;;;;;;;3.72;81.03;99721.72;8238712;28;20575;-64
2022/04/01 13:49:59;;;;;;;5.82;4.20;;;;;;;3.62;81.85;99731.41;8242820;28;20042;-63
2022/04/01 13:54:00;;;;;;;6.90;4.80;;;;;;;3.61;83.05;99744.88;8230849;28;20050;-64
2022/04/01 13:58:00;;;;;;;7.47;4.93;;;;;;;3.52;82.04;99735.75;8224860;28;20057;-64
2022/04/01 14:02:01;;;;;;;6.82;5.28;;;;;;;3.59;83.39;99742.31;8237743;28;20046;-64
2022/04/01 14:06:01;;;;;;;6.40;5.03;;;;;;;3.71;84.09;99745.88;8251849;28;20038;-64
2022/04/01 14:10:02;;;;;;;7.88;5.38;;;;;;;3.56;84.45;99753.25;8233787;28;20598;-64
2022/04/01 14:14:05;;;;;;;6.25;5.38;;;;;;;3.42;84.97;99756.06;8228149;28;20039;-64
2022/04/01 14:18:06;;;;;;;10.27;5.88;;;;;;;3.38;85.62;99754.63;8220259;28;20051;-64
2022/04/01 14:22:06;;;;;;;12.05;5.65;;;;;;;3.47;85.45;99774.44;8220127;28;20053;-64
2022/04/01 14:26:07;;;;;;;7.85;5.35;;;;;;;3.47;85.37;99767.28;8228072;28;20049;-64
2022/04/01 14:30:22;;;;;;;7.57;5.63;;;;;;;3.57;85.24;99776.31;8208518;28;20478;-64
2022/04/01 14:34:26;;;;;;;7.30;6.05;;;;;;;3.47;86.23;99777.97;8241088;28;20059;-64
2022/04/01 14:38:27;;;;;;;7.07;5.60;;;;;;;3.28;87.90;99793.66;8224495;28;20054;-62
2022/04/01 14:42:27;;;;;;;7.72;5.45;;;;;;;3.18;87.01;99787.31;8228096;28;20131;-62
2022/04/01 14:46:28;;;;;;;8.55;6.28;;;;;;;3.19;88.11;99801.47;8229541;28;20042;-62
2022/04/01 14:50:29;;;;;;;8.25;6.57;;;;;;;3.19;90.02;99806.81;8232748;28;20054;-62
2022/04/01 14:54:29;;;;;;;10.77;6.43;;;;;;;3.15;90.70;99795.53;8244075;28;20099;-62
2022/04/01 14:58:29;;;;;;;9.65;6.90;;;;;;;3.04;91.97;99808.78;8242713;28;20052;-62
2022/04/01 15:02:33;;;;;;;10.02;6.28;;;;;;;3.02;93.34;99815.22;8220419;28;20139;-62
2022/04/01 15:06:34;;;;;;;7.85;6.72;;;;;;;2.94;94.91;99828.25;8229949;28;20569;-62
2022/04/01 15:10:34;;;;;;;11.23;6.95;;;;;;;2.83;96.72;99831.69;8229422;28;20461;-62
2022/04/01 15:14:35;;;;;;;9.68;6.63;;;;;;;2.80;98.74;99837.25;8233563;28;20047;-62
2022/04/01 15:18:35;;;;;;;10.50;6.70;;;;;;;2.83;99.95;99839.69;8225493;28;20802;-63
2022/04/01 15:22:38;;;;;;;9.23;6.63;;;;;;;2.81;100.00;99852.28;8233625;28;20053;-63
2022/04/01 15:26:38;;;;;;;13.32;7.28;;;;;;;2.76;100.00;99857.09;8238806;28;20092;-63
2022/04/01 15:30:40;;;;;;;12.88;8.10;;;;;;;2.70;100.00;99857.53;8235369;28;20042;-63
2022/04/01 15:34:41;;;;;;;15.63;9.00;;;;;;;2.74;100.00;99868.88;8236842;28;20562;-63
2022/04/01 15:38:41;;;;;;;15.60;9.02;;;;;;;2.62;100.00;99859.03;8226280;28;20077;-63
2022/04/01 15:42:49;;;;;;;19.30;13.60;;;;;;;2.56;100.00;99867.47;8209167;28;20071;-63
2022/04/01 15:46:50;;;;;;;24.30;17.35;;;;;;;2.55;100.00;99861.28;8220911;28;20446;-63
2022/04/01 15:50:50;;;;;;;29.20;19.27;;;;;;;2.68;100.00;99875.47;8244585;28;20069;-63
2022/04/01 15:54:50;;;;;;;27.65;19.15;;;;;;;2.64;100.00;99873.09;8223520;28;20168;-63
2022/04/01 15:58:51;;;;;;;24.75;16.92;;;;;;;2.59;100.00;99873.44;8219676;28;20221;-62
2022/04/01 16:02:59;;;;;;;23.00;15.68;;;;;;;2.61;100.00;99874.19;8242604;28;20080;-63
2022/04/01 16:07:03;;;;;;;17.85;13.60;;;;;;;2.71;100.00;99896.59;8229055;28;20039;-63
2022/04/01 16:11:05;;;;;;;17.80;12.68;;;;;;;2.66;100.00;99893.41;8235906;28;20101;-63
2022/04/01 16:15:07;;;;;;;11.98;9.77;;;;;;;2.62;100.00;99905.22;8234553;28;20042;-63
2022/04/01 16:19:08;;;;;;;11.82;8.88;;;;;;;2.63;100.00;99909.63;8232123;28;20050;-63
2022/04/01 16:23:11;;;;;;;11.85;9.18;;;;;;;2.65;100.00;99906.84;8240379;28;20131;-63
2022/04/01 16:27:11;;;;;;;12.65;9.52;;;;;;;2.66;100.00;99925.44;8237295;28;20049;-62
2022/04/01 16:31:11;;;;;;;12.43;9.10;;;;;;;2.66;100.00;99924.56;8250134;28;20172;-63
2022/04/01 16:35:14;;;;;;;10.15;7.28;;;;;;;2.64;100.00;99932.66;8249742;28;20157;-63
2022/04/01 16:39:14;;;;;;;11.68;6.43;;;;;;;2.59;100.00;99939.28;8244447;28;20039;-63
2022/04/01 16:43:15;;;;;;;10.45;7.47;;;;;;;2.52;100.00;99944.19;8244175;28;20212;-63
2022/04/01 16:47:16;;;;;;;8.88;7.05;;;;;;;2.52;100.00;99949.50;8243637;28;20045;-63
2022/04/01 16:51:16;;;;;;;17.23;9.35;;;;;;;2.51;100.00;99953.16;8257050;28;20113;-63
2022/04/01 16:55:17;;;;;;;13.43;9.02;;;;;;;2.43;100.00;99960.81;8239072;28;20485;-63
2022/04/01 16:59:18;;;;;;;15.07;10.60;;;;;;;2.34;100.00;99960.56;8241954;28;20271;-63
2022/04/01 17:03:18;;;;;;;23.85;16.38;;;;;;;2.24;100.00;99971.00;8228067;28;20609;-63
2022/04/01 17:12:42;;;;;;;39.05;23.50;;;;;;;2.20;100.00;99979.31;8226949;28;20043;-62
2022/04/01 17:16:00;;;;;;;44.33;27.13;;;;;;;2.12;100.00;99982.47;8220563;28;20050;-63
2022/04/01 17:20:05;;;;;;;52.78;30.58;;;;;;;2.05;100.00;99992.66;8237027;28;20637;-62
2022/04/01 17:24:08;;;;;;;47.50;27.88;;;;;;;1.99;100.00;99982.41;8247882;28;20038;-62
2022/04/01 17:28:10;;;;;;;47.65;27.55;;;;;;;2.03;100.00;99988.41;8246543;28;20043;-62
2022/04/01 17:32:16;;;;;;;54.15;29.35;;;;;;;1.99;100.00;99994.91;8241795;28;20038;-62
2022/04/01 17:36:18;;;;;;;55.25;31.33;;;;;;;1.98;100.00;99994.03;8236964;28;20503;-62
2022/04/01 17:40:21;;;;;;;55.67;31.75;;;;;;;2.02;100.00;99992.03;8250426;28;20331;-62
2022/04/01 17:44:21;;;;;;;53.63;30.85;;;;;;;2.01;100.00;100001.81;8237835;28;20136;-62
2022/04/01 17:48:22;;;;;;;55.83;30.33;;;;;;;1.94;100.00;100002.31;8259593;28;20066;-62
2022/04/01 17:52:26;;;;;;;54.53;32.00;;;;;;;1.93;100.00;100004.13;8234313;28;20133;-62
2022/04/01 17:56:26;;;;;;;51.22;29.85;;;;;;;1.91;100.00;100014.03;8227984;28;20141;-62
2022/04/01 18:00:30;;;;;;;53.10;30.80;;;;;;;1.86;100.00;100007.31;8226435;28;20046;-62
2022/04/01 18:04:34;;;;;;;53.92;30.67;;;;;;;1.91;100.00;100005.19;8225863;28;20384;-63
2022/04/01 18:08:39;;;;;;;57.55;33.70;;;;;;;1.93;100.00;100008.63;8231478;28;20206;-63
2022/04/01 18:12:39;;;;;;;67.00;36.00;;;;;;;1.94;100.00;100016.50;8233443;28;20050;-63
2022/04/01 18:16:41;;;;;;;65.72;35.47;;;;;;;1.89;100.00;100020.41;8233409;28;20145;-63
2022/04/01 18:20:42;;;;;;;77.43;40.55;;;;;;;1.88;100.00;100021.38;8223537;28;20467;-63
2022/04/01 18:25:15;;;;;;;90.30;44.50;;;;;;;1.89;100.00;100031.06;8239168;28;20535;-63
2022/04/01 18:33:46;;;;;;;75.40;40.53;;;;;;;1.86;100.00;100025.97;8346132;27;20823;-64
2022/04/01 18:37:48;;;;;;;44.20;26.67;;;;;;;1.85;100.00;100043.75;8366406;28;20666;-64
2022/04/01 18:41:51;;;;;;;42.63;25.30;;;;;;;1.85;100.00;100043.75;8369542;28;20344;-64
2022/04/01 18:45:53;;;;;;;40.25;24.38;;;;;;;1.86;100.00;100052.63;8347007;28;20045;-64
2022/04/01 18:49:54;;;;;;;34.72;22.45;;;;;;;1.84;100.00;100051.84;8365595;28;20041;-64
2022/04/01 18:53:57;;;;;;;37.65;23.42;;;;;;;1.83;100.00;100058.13;8363805;28;20416;-64
2022/04/01 18:57:57;;;;;;;29.35;20.20;;;;;;;1.83;100.00;100060.81;8364626;28;20338;-64
2022/04/01 19:02:02;;;;;;;36.03;22.13;;;;;;;1.82;100.00;100069.72;8364249;28;20152;-64
2022/04/01 19:06:07;;;;;;;35.25;22.85;;;;;;;1.81;100.00;100068.88;8365728;28;20131;-64
2022/04/01 19:10:11;;;;;;;;;;;;;;;1.77;100.00;100080.69;8365791;28;20478;-64
2022/04/01 19:14:12;;;;;;;;;;;;;;;1.76;100.00;100078.09;8357114;28;20428;-64
2022/04/01 19:18:16;;;;;;;37.00;22.73;;;;;;;1.74;100.00;100072.03;8366928;28;19917;-63
2022/04/01 19:22:18;;;;;;;36.75;21.67;;;;;;;1.75;100.00;100073.75;8366828;28;20045;-64
2022/04/01 19:26:19;;;;;;;32.20;21.38;;;;;;;1.74;100.00;100082.69;8366184;28;20136;-63